createdAt,value
2018-07-25T00:00:37.542Z,76.80
2018-07-25T00:03:04.995Z,76.80
2018-07-25T00:05:33.213Z,77.50
2018-07-25T00:08:01.446Z,77.40
2018-07-25T00:10:29.648Z,77.70
2018-07-25T00:12:57.086Z,77.70
2018-07-25T00:15:25.314Z,77.90
2018-07-25T00:17:52.759Z,77.90
2018-07-25T00:20:20.202Z,78.20
2018-07-25T00:22:48.413Z,78.80
2018-07-25T00:25:16.630Z,79.30
2018-07-25T00:27:44.840Z,79.70
2018-07-25T00:30:13.060Z,79.70
2018-07-25T00:32:41.264Z,79.80
2018-07-25T00:35:09.497Z,79.60
2018-07-25T00:37:36.961Z,79.60
2018-07-25T00:40:05.146Z,81.10
2018-07-25T00:42:33.342Z,80.20
2018-07-25T00:45:01.563Z,80.40
2018-07-25T00:47:29.774Z,80.70
2018-07-25T00:49:57.992Z,80.80
2018-07-25T00:52:26.203Z,81.00
2018-07-25T00:54:54.423Z,80.50
2018-07-25T00:57:21.869Z,80.50
2018-07-25T00:59:50.078Z,80.80
2018-07-25T01:02:18.289Z,81.10
2018-07-25T01:04:46.542Z,80.90
2018-07-25T01:07:14.748Z,81.00
2018-07-25T01:09:42.976Z,81.20
2018-07-25T01:12:11.179Z,81.60
2018-07-25T01:14:39.399Z,81.80
2018-07-25T01:17:07.620Z,81.80
2018-07-25T01:19:35.063Z,81.80
2018-07-25T01:22:03.504Z,81.60
2018-07-25T01:24:31.711Z,81.60
2018-07-25T01:26:59.927Z,82.20
2018-07-25T01:29:28.150Z,82.50
2018-07-25T01:31:56.373Z,82.70
2018-07-25T01:34:24.596Z,82.70
2018-07-25T01:36:52.807Z,82.80
2018-07-25T01:39:20.264Z,82.80
2018-07-25T01:41:48.476Z,83.00
2018-07-25T01:44:16.694Z,83.20
2018-07-25T01:46:44.900Z,83.10
2018-07-25T01:49:13.126Z,82.70
2018-07-25T01:51:41.340Z,83.00
2018-07-25T01:54:09.551Z,84.00
2018-07-25T01:56:37.768Z,83.40
2018-07-25T01:59:05.231Z,83.40
2018-07-25T02:01:33.440Z,83.90
2018-07-25T02:04:01.659Z,84.00
2018-07-25T02:06:29.882Z,84.00
2018-07-25T02:08:58.104Z,84.10
2018-07-25T02:11:26.328Z,83.90
2018-07-25T02:13:54.549Z,84.30
2018-07-25T02:16:22.008Z,84.30
2018-07-25T02:18:50.229Z,84.50
2018-07-25T02:21:18.451Z,84.60
2018-07-25T02:23:46.668Z,84.60
2018-07-25T02:26:14.892Z,84.90
2018-07-25T02:28:43.117Z,84.80
2018-07-25T02:31:11.339Z,85.10
2018-07-25T02:33:39.567Z,85.10
2018-07-25T02:36:07.784Z,85.30
2018-07-25T02:38:36.001Z,85.50
2018-07-25T02:41:04.221Z,85.50
2018-07-25T02:43:32.441Z,85.70
2018-07-25T02:46:00.669Z,85.80
2018-07-25T02:48:28.865Z,86.00
2018-07-25T02:50:57.085Z,86.10
2018-07-25T02:53:25.305Z,86.10
2018-07-25T02:55:53.519Z,86.30
2018-07-25T02:58:21.736Z,86.30
2018-07-25T03:00:49.948Z,86.20
2018-07-25T03:03:18.155Z,86.50
2018-07-25T03:05:46.387Z,86.50
2018-07-25T03:08:14.596Z,86.70
2018-07-25T03:10:42.824Z,86.70
2018-07-25T03:13:11.037Z,87.00
2018-07-25T03:15:39.268Z,87.00
2018-07-25T03:18:06.728Z,87.00
2018-07-25T03:20:34.940Z,87.50
2018-07-25T03:23:03.152Z,87.60
2018-07-25T03:25:31.367Z,87.50
2018-07-25T03:27:59.575Z,87.50
2018-07-25T03:30:28.624Z,87.50
2018-07-25T03:32:56.839Z,87.40
2018-07-25T03:35:25.069Z,87.50
2018-07-25T03:37:53.284Z,87.70
2018-07-25T03:40:21.513Z,87.90
2018-07-25T03:42:49.720Z,87.70
2018-07-25T03:45:17.941Z,87.90
2018-07-25T03:47:46.165Z,88.20
2018-07-25T03:50:14.393Z,88.20
2018-07-25T03:52:42.607Z,88.40
2018-07-25T03:55:10.833Z,88.30
2018-07-25T03:57:39.044Z,88.20
2018-07-25T04:00:07.259Z,88.20
2018-07-25T04:02:35.532Z,88.30
2018-07-25T04:05:03.690Z,88.30
2018-07-25T04:07:31.912Z,88.20
2018-07-25T04:10:00.134Z,88.10
2018-07-25T04:12:28.352Z,88.40
2018-07-25T04:14:56.579Z,87.80
2018-07-25T04:17:24.800Z,87.70
2018-07-25T04:19:53.021Z,87.50
2018-07-25T04:22:21.236Z,87.40
2018-07-25T04:24:49.505Z,87.20
2018-07-25T04:27:17.676Z,87.20
2018-07-25T04:29:45.896Z,87.10
2018-07-25T04:32:14.116Z,86.80
2018-07-25T04:34:42.335Z,86.50
2018-07-25T04:37:10.556Z,86.10
2018-07-25T04:39:37.998Z,86.10
2018-07-25T04:42:06.220Z,85.70
2018-07-25T04:44:34.437Z,85.30
2018-07-25T04:47:02.653Z,84.90
2018-07-25T04:49:30.868Z,84.80
2018-07-25T04:51:59.089Z,84.60
2018-07-25T04:54:27.301Z,84.50
2018-07-25T04:56:55.527Z,83.50
2018-07-25T04:59:23.748Z,81.70
2018-07-25T05:01:51.968Z,79.80
2018-07-25T05:04:20.176Z,77.80
2018-07-25T05:06:48.404Z,76.30
2018-07-25T05:09:16.624Z,74.70
2018-07-25T05:11:44.857Z,72.90
2018-07-25T05:14:13.074Z,71.50
2018-07-25T05:16:41.304Z,70.00
2018-07-25T05:19:08.758Z,70.00
2018-07-25T05:21:36.974Z,68.00
2018-07-25T05:24:05.210Z,67.80
2018-07-25T05:26:33.425Z,68.20
2018-07-25T05:29:01.658Z,68.40
2018-07-25T05:31:29.877Z,68.70
2018-07-25T05:33:58.096Z,69.10
2018-07-25T05:36:26.311Z,69.50
2018-07-25T05:38:53.764Z,69.60
2018-07-25T05:41:21.983Z,70.30
2018-07-25T05:43:50.262Z,70.60
2018-07-25T05:46:18.444Z,70.80
2018-07-25T05:48:47.700Z,71.20
2018-07-25T05:51:15.913Z,70.30
2018-07-25T05:53:44.127Z,70.00
2018-07-25T05:56:12.344Z,69.40
2018-07-25T05:58:40.644Z,69.20
2018-07-25T06:01:08.783Z,69.00
2018-07-25T06:03:37.013Z,68.80
2018-07-25T06:06:05.276Z,68.50
2018-07-25T06:08:32.699Z,68.50
2018-07-25T06:11:00.892Z,68.00
2018-07-25T06:13:29.124Z,67.70
2018-07-25T06:15:57.334Z,67.20
2018-07-25T06:18:25.552Z,66.70
2018-07-25T06:20:53.762Z,66.60
2018-07-25T06:23:21.980Z,66.60
2018-07-25T06:25:50.190Z,66.10
2018-07-25T06:28:18.408Z,66.00
2018-07-25T06:30:46.620Z,65.60
2018-07-25T06:33:14.845Z,65.20
2018-07-25T06:35:43.048Z,65.00
2018-07-25T06:38:11.275Z,64.90
2018-07-25T06:40:39.492Z,64.50
2018-07-25T06:43:06.948Z,64.50
2018-07-25T06:45:35.164Z,64.30
2018-07-25T06:48:03.384Z,63.50
2018-07-25T06:50:31.603Z,63.10
2018-07-25T06:52:59.835Z,62.60
2018-07-25T06:55:28.048Z,61.60
2018-07-25T06:57:56.287Z,61.00
2018-07-25T07:00:24.487Z,60.50
2018-07-25T07:02:52.707Z,60.10
2018-07-25T07:05:20.960Z,59.80
2018-07-25T07:07:49.203Z,59.60
2018-07-25T07:10:17.413Z,59.30
2018-07-25T07:12:45.624Z,59.20
2018-07-25T07:15:13.876Z,59.20
2018-07-25T07:17:42.071Z,58.90
2018-07-25T07:20:10.271Z,58.00
2018-07-25T07:22:38.496Z,57.40
2018-07-25T07:25:06.715Z,57.10
2018-07-25T07:27:34.935Z,56.30
2018-07-25T07:30:03.148Z,56.20
2018-07-25T07:32:31.370Z,56.30
2018-07-25T07:34:59.635Z,56.00
2018-07-25T07:37:27.100Z,55.90
2018-07-25T07:39:55.264Z,54.20
2018-07-25T07:42:23.484Z,54.20
2018-07-25T07:44:51.699Z,53.80
2018-07-25T07:47:19.907Z,53.20
2018-07-25T07:49:48.129Z,52.30
2018-07-25T07:52:16.343Z,51.90
2018-07-25T07:54:44.565Z,52.00
2018-07-25T07:57:12.780Z,51.60
2018-07-25T07:59:41.004Z,50.40
2018-07-25T08:02:09.220Z,49.20
2018-07-25T08:04:36.671Z,49.10
2018-07-25T08:07:04.889Z,48.30
2018-07-25T08:09:33.125Z,47.60
2018-07-25T08:12:01.349Z,47.70
2018-07-25T08:14:29.572Z,48.10
2018-07-25T08:16:57.020Z,48.10
2018-07-25T08:19:25.253Z,46.90
2018-07-25T08:21:53.459Z,47.80
2018-07-25T08:24:21.689Z,47.40
2018-07-25T08:26:49.895Z,48.30
2018-07-25T08:29:18.119Z,49.30
2018-07-25T08:31:46.352Z,49.90
2018-07-25T08:34:14.580Z,51.00
2018-07-25T08:36:42.788Z,50.70
2018-07-25T08:39:11.004Z,51.10
2018-07-25T08:41:39.230Z,51.70
2018-07-25T08:44:07.453Z,52.10
2018-07-25T08:46:35.657Z,52.60
2018-07-25T08:49:03.885Z,52.90
2018-07-25T08:51:32.096Z,53.30
2018-07-25T08:54:00.312Z,53.60
2018-07-25T08:56:28.539Z,54.00
2018-07-25T08:58:55.992Z,54.00
2018-07-25T09:01:24.230Z,54.70
2018-07-25T09:03:52.444Z,54.70
2018-07-25T09:06:20.674Z,54.80
2018-07-25T09:08:48.897Z,55.20
2018-07-25T09:11:17.123Z,55.70
2018-07-25T09:13:45.331Z,55.00
2018-07-25T09:16:13.550Z,54.90
2018-07-25T09:18:41.772Z,54.70
2018-07-25T09:21:10.008Z,54.60
2018-07-25T09:23:38.581Z,54.50
2018-07-25T09:26:06.780Z,54.90
2018-07-25T09:28:35.013Z,54.60
2018-07-25T09:31:03.225Z,54.60
2018-07-25T09:33:31.441Z,54.50
2018-07-25T09:35:59.655Z,54.20
2018-07-25T09:38:27.861Z,53.70
2018-07-25T09:40:56.089Z,51.30
2018-07-25T09:43:24.289Z,51.40
2018-07-25T09:45:52.503Z,51.20
2018-07-25T09:48:20.742Z,50.70
2018-07-25T09:50:48.936Z,50.20
2018-07-25T09:53:17.141Z,49.90
2018-07-25T09:55:45.359Z,48.90
2018-07-25T09:58:13.571Z,49.20
2018-07-25T10:00:41.804Z,49.00
2018-07-25T10:03:10.019Z,48.60
2018-07-25T10:05:38.248Z,49.20
2018-07-25T10:08:06.449Z,49.30
2018-07-25T10:10:34.654Z,49.30
2018-07-25T10:13:02.112Z,49.30
2018-07-25T10:15:30.315Z,46.80
2018-07-25T10:17:58.532Z,44.40
2018-07-25T10:20:26.758Z,42.90
2018-07-25T10:22:54.962Z,42.20
2018-07-25T10:25:23.186Z,40.50
2018-07-25T10:27:51.388Z,40.10
2018-07-25T10:30:19.619Z,39.60
2018-07-25T10:32:47.858Z,39.30
2018-07-25T10:35:16.064Z,39.60
2018-07-25T10:37:44.300Z,39.50
2018-07-25T10:40:12.487Z,39.50
2018-07-25T10:42:40.740Z,39.20
2018-07-25T10:45:08.919Z,38.70
2018-07-25T10:47:37.134Z,37.60
2018-07-25T10:50:05.353Z,37.80
2018-07-25T10:52:33.572Z,38.30
2018-07-25T10:55:01.797Z,37.20
2018-07-25T10:57:30.006Z,38.40
2018-07-25T10:59:58.220Z,38.90
2018-07-25T11:02:26.448Z,38.40
2018-07-25T11:04:53.901Z,38.30
2018-07-25T11:07:22.483Z,37.00
2018-07-25T11:09:50.708Z,36.00
2018-07-25T11:12:18.915Z,36.10
2018-07-25T11:14:47.137Z,36.40
2018-07-25T11:17:15.351Z,35.30
2018-07-25T11:19:43.599Z,33.90
2018-07-25T11:22:11.814Z,35.60
2018-07-25T11:24:40.037Z,35.70
2018-07-25T11:27:08.244Z,36.10
2018-07-25T11:29:36.471Z,35.80
2018-07-25T11:32:04.683Z,34.80
2018-07-25T11:34:32.913Z,33.80
2018-07-25T11:37:01.648Z,33.10
2018-07-25T11:39:29.863Z,33.10
2018-07-25T11:41:58.082Z,32.60
2018-07-25T11:44:26.295Z,33.30
2018-07-25T11:46:53.743Z,33.20
2018-07-25T11:49:21.960Z,32.00
2018-07-25T11:51:50.179Z,32.00
2018-07-25T11:54:18.394Z,32.30
2018-07-25T11:56:46.603Z,32.30
2018-07-25T11:59:14.816Z,32.60
2018-07-25T12:01:43.051Z,33.90
2018-07-25T12:04:11.251Z,35.00
2018-07-25T12:06:39.497Z,35.50
2018-07-25T12:09:07.678Z,36.40
2018-07-25T12:11:35.890Z,37.20
2018-07-25T12:14:04.117Z,37.60
2018-07-25T12:16:32.330Z,37.60
2018-07-25T12:19:00.547Z,38.20
2018-07-25T12:21:28.764Z,38.80
2018-07-25T12:23:56.971Z,39.50
2018-07-25T12:26:25.194Z,38.70
2018-07-25T12:28:53.391Z,39.40
2018-07-25T12:31:22.621Z,39.80
2018-07-25T12:33:50.826Z,39.50
2018-07-25T12:36:19.050Z,39.20
2018-07-25T12:38:47.269Z,39.20
2018-07-25T12:41:15.483Z,38.30
2018-07-25T12:43:43.698Z,37.80
2018-07-25T12:46:11.159Z,37.80
2018-07-25T12:48:39.367Z,36.30
2018-07-25T12:51:07.579Z,35.60
2018-07-25T12:53:35.020Z,35.60
2018-07-25T12:56:03.269Z,34.20
2018-07-25T12:58:31.486Z,33.60
2018-07-25T13:00:59.711Z,33.80
2018-07-25T13:03:27.936Z,31.50
2018-07-25T13:05:56.160Z,31.40
2018-07-25T13:08:24.423Z,31.40
2018-07-25T13:10:52.655Z,31.50
2018-07-25T13:13:20.871Z,31.50
2018-07-25T13:15:49.091Z,31.10
2018-07-25T13:18:17.292Z,31.60
2018-07-25T13:20:45.527Z,32.10
2018-07-25T13:23:13.815Z,31.60
2018-07-25T13:25:42.032Z,32.00
2018-07-25T13:28:09.486Z,32.00
2018-07-25T13:30:37.700Z,30.90
2018-07-25T13:33:05.151Z,31.00
2018-07-25T13:35:33.359Z,30.00
2018-07-25T13:38:01.576Z,30.80
2018-07-25T13:40:29.794Z,30.00
2018-07-25T13:42:58.049Z,29.90
2018-07-25T13:45:26.259Z,29.70
2018-07-25T13:47:54.439Z,29.90
2018-07-25T13:50:22.659Z,29.00
2018-07-25T13:52:50.875Z,28.10
2018-07-25T13:55:19.095Z,28.30
2018-07-25T13:57:47.306Z,27.30
2018-07-25T14:00:15.516Z,27.60
2018-07-25T14:02:43.735Z,27.90
2018-07-25T14:05:11.947Z,27.90
2018-07-25T14:07:40.159Z,28.00
2018-07-25T14:10:08.372Z,28.30
2018-07-25T14:12:36.589Z,28.20
2018-07-25T14:15:04.803Z,28.70
2018-07-25T14:17:33.019Z,28.50
2018-07-25T14:20:01.224Z,28.10
2018-07-25T14:22:29.444Z,28.10
2018-07-25T14:24:57.643Z,28.80
2018-07-25T14:27:25.869Z,27.10
2018-07-25T14:29:54.080Z,27.10
2018-07-25T14:32:22.303Z,27.40
2018-07-25T14:34:50.544Z,27.50
2018-07-25T14:37:18.737Z,27.90
2018-07-25T14:39:47.038Z,26.90
2018-07-25T14:42:15.177Z,26.60
2018-07-25T14:44:43.384Z,26.70
2018-07-25T14:47:11.670Z,26.50
2018-07-25T14:49:39.811Z,26.60
2018-07-25T14:52:08.035Z,26.80
2018-07-25T14:54:36.242Z,26.50
2018-07-25T14:57:04.460Z,26.60
2018-07-25T14:59:32.671Z,26.40
2018-07-25T15:02:00.883Z,25.70
2018-07-25T15:04:29.091Z,25.40
2018-07-25T15:06:57.316Z,25.20
2018-07-25T15:09:25.529Z,25.30
2018-07-25T15:11:53.742Z,26.10
2018-07-25T15:14:21.200Z,25.60
2018-07-25T15:16:49.415Z,25.60
2018-07-25T15:19:18.552Z,25.80
2018-07-25T15:21:50.216Z,25.80
2018-07-25T15:24:18.438Z,26.30
2018-07-25T15:26:46.647Z,26.80
2018-07-25T15:29:14.864Z,27.50
2018-07-25T15:31:43.082Z,26.00
2018-07-25T15:34:11.298Z,26.40
2018-07-25T15:36:39.515Z,26.60
2018-07-25T15:39:06.963Z,26.60
2018-07-25T15:41:35.171Z,25.50
2018-07-25T15:44:03.412Z,25.60
2018-07-25T15:46:31.633Z,25.90
2018-07-25T15:48:59.855Z,26.10
2018-07-25T15:51:28.060Z,26.00
2018-07-25T15:53:56.270Z,26.40
2018-07-25T15:56:24.479Z,26.80
2018-07-25T15:58:52.702Z,26.40
2018-07-25T16:01:20.911Z,25.90
2018-07-25T16:03:49.133Z,26.30
2018-07-25T16:06:17.348Z,26.80
2018-07-25T16:08:45.577Z,26.70
2018-07-25T16:11:13.791Z,26.30
2018-07-25T16:13:42.011Z,26.40
2018-07-25T16:16:10.226Z,26.00
2018-07-25T16:18:38.441Z,25.30
2018-07-25T16:21:06.660Z,26.10
2018-07-25T16:23:34.876Z,26.60
2018-07-25T16:26:03.091Z,27.70
2018-07-25T16:28:31.311Z,28.20
2018-07-25T16:30:59.525Z,29.00
2018-07-25T16:33:27.738Z,29.50
2018-07-25T16:35:55.943Z,29.40
2018-07-25T16:38:24.164Z,29.80
2018-07-25T16:40:52.379Z,30.00
2018-07-25T16:43:20.601Z,30.60
2018-07-25T16:45:48.813Z,31.50
2018-07-25T16:48:17.032Z,31.80
2018-07-25T16:50:45.239Z,32.40
2018-07-25T16:53:13.456Z,32.80
2018-07-25T16:55:40.954Z,32.80
2018-07-25T16:58:09.184Z,33.60
2018-07-25T17:00:37.391Z,34.00
2018-07-25T17:03:05.632Z,34.10
2018-07-25T17:05:33.836Z,34.30
2018-07-25T17:08:02.051Z,34.60
2018-07-25T17:10:30.251Z,35.00
2018-07-25T17:12:58.477Z,35.40
2018-07-25T17:15:26.691Z,35.50
2018-07-25T17:17:54.898Z,35.50
2018-07-25T17:20:23.122Z,35.60
2018-07-25T17:22:51.328Z,36.30
2018-07-25T17:25:19.539Z,36.50
2018-07-25T17:27:47.772Z,36.60
2018-07-25T17:30:15.962Z,36.30
2018-07-25T17:32:44.171Z,36.30
2018-07-25T17:35:12.398Z,37.00
2018-07-25T17:37:40.596Z,37.50
2018-07-25T17:40:08.816Z,38.00
2018-07-25T17:42:37.012Z,38.30
2018-07-25T17:45:05.230Z,38.40
2018-07-25T17:47:33.436Z,38.50
2018-07-25T17:50:00.879Z,38.50
2018-07-25T17:52:29.086Z,38.90
2018-07-25T17:54:57.321Z,38.90
2018-07-25T17:57:25.541Z,39.50
2018-07-25T17:59:53.755Z,40.00
2018-07-25T18:02:21.970Z,40.50
2018-07-25T18:04:50.179Z,40.60
2018-07-25T18:07:18.393Z,41.00
2018-07-25T18:09:45.822Z,41.00
2018-07-25T18:12:14.042Z,41.90
2018-07-25T18:14:42.251Z,41.90
2018-07-25T18:17:10.505Z,41.90
2018-07-25T18:19:37.919Z,41.90
2018-07-25T18:22:07.147Z,42.50
2018-07-25T18:24:35.472Z,42.60
2018-07-25T18:27:03.691Z,42.90
2018-07-25T18:29:31.183Z,42.90
2018-07-25T18:31:59.409Z,44.20
2018-07-25T18:34:27.626Z,44.90
2018-07-25T18:36:55.831Z,44.90
2018-07-25T18:39:24.048Z,44.90
2018-07-25T18:41:52.259Z,44.90
2018-07-25T18:44:20.476Z,45.10
2018-07-25T18:46:48.686Z,45.50
2018-07-25T18:49:16.135Z,45.40
2018-07-25T18:51:44.356Z,45.60
2018-07-25T18:54:12.591Z,46.30
2018-07-25T18:56:40.803Z,47.10
2018-07-25T18:59:09.015Z,47.20
2018-07-25T19:01:37.243Z,47.50
2018-07-25T19:04:05.452Z,47.80
2018-07-25T19:06:33.668Z,48.00
2018-07-25T19:09:01.111Z,48.00
2018-07-25T19:11:29.343Z,48.70
2018-07-25T19:13:57.551Z,48.70
2018-07-25T19:16:25.764Z,49.20
2018-07-25T19:18:53.980Z,49.50
2018-07-25T19:21:22.191Z,49.50
2018-07-25T19:23:50.457Z,49.80
2018-07-25T19:26:18.623Z,50.30
2018-07-25T19:28:46.059Z,50.30
2018-07-25T19:31:14.267Z,51.00
2018-07-25T19:33:42.487Z,51.40
2018-07-25T19:36:10.718Z,51.60
2018-07-25T19:38:38.934Z,52.30
2018-07-25T19:41:07.155Z,53.00
2018-07-25T19:43:35.372Z,53.30
2018-07-25T19:46:03.631Z,53.50
2018-07-25T19:48:31.839Z,53.70
2018-07-25T19:51:00.066Z,53.60
2018-07-25T19:53:28.271Z,53.60
2018-07-25T19:55:56.479Z,53.90
2018-07-25T19:58:24.692Z,54.00
2018-07-25T20:00:52.922Z,54.00
2018-07-25T20:03:21.122Z,54.30
2018-07-25T20:05:49.334Z,54.40
2018-07-25T20:08:17.540Z,54.90
2018-07-25T20:10:45.760Z,55.40
2018-07-25T20:13:13.976Z,55.70
2018-07-25T20:16:00.063Z,55.80
2018-07-25T20:18:28.289Z,56.40
2018-07-25T20:20:56.572Z,56.70
2018-07-25T20:23:24.862Z,56.90
2018-07-25T20:25:53.096Z,57.20
2018-07-25T20:28:21.291Z,57.50
2018-07-25T20:30:49.520Z,58.00
2018-07-25T20:33:17.723Z,58.20
2018-07-25T20:35:45.955Z,58.10
2018-07-25T20:38:13.378Z,58.10
2018-07-25T20:40:41.600Z,58.00
2018-07-25T20:43:09.813Z,58.70
2018-07-25T20:45:38.045Z,59.10
2018-07-25T20:48:05.521Z,59.10
2018-07-25T20:50:33.727Z,59.10
2018-07-25T20:53:01.931Z,59.30
2018-07-25T20:55:29.396Z,59.30
2018-07-25T20:57:57.588Z,59.70
2018-07-25T21:00:25.973Z,59.90
2018-07-25T21:02:54.072Z,60.00
2018-07-25T21:05:22.289Z,60.30
2018-07-25T21:07:50.503Z,60.80
2018-07-25T21:10:18.707Z,61.20
2018-07-25T21:12:46.928Z,61.70
2018-07-25T21:15:15.172Z,61.80
2018-07-25T21:17:43.395Z,61.80
2018-07-25T21:20:11.626Z,63.10
2018-07-25T21:22:39.840Z,62.60
2018-07-25T21:25:08.050Z,63.40
2018-07-25T21:27:35.504Z,63.30
2018-07-25T21:30:03.987Z,63.70
2018-07-25T21:32:32.215Z,64.40
2018-07-25T21:35:00.415Z,65.00
2018-07-25T21:37:28.636Z,65.10
2018-07-25T21:39:56.846Z,65.10
2018-07-25T21:42:25.069Z,64.90
2018-07-25T21:44:53.278Z,65.00
2018-07-25T21:47:21.483Z,65.10
2018-07-25T21:49:49.702Z,65.60
2018-07-25T21:52:17.918Z,65.50
2018-07-25T21:54:46.126Z,65.50
2018-07-25T21:57:14.352Z,65.40
2018-07-25T21:59:41.796Z,65.40
2018-07-25T22:02:10.004Z,66.20
2018-07-25T22:04:38.213Z,66.00
2018-07-25T22:07:06.444Z,66.10
2018-07-25T22:09:34.649Z,66.50
2018-07-25T22:12:02.871Z,66.90
2018-07-25T22:14:31.083Z,67.00
2018-07-25T22:16:59.307Z,67.40
2018-07-25T22:19:27.512Z,67.90
2018-07-25T22:21:55.731Z,68.60
2018-07-25T22:24:23.947Z,68.40
2018-07-25T22:26:52.167Z,68.40
2018-07-25T22:29:20.446Z,68.80
2018-07-25T22:31:48.656Z,69.00
2018-07-25T22:34:16.871Z,68.70
2018-07-25T22:36:45.088Z,68.80
2018-07-25T22:39:13.304Z,69.90
2018-07-25T22:41:41.520Z,69.30
2018-07-25T22:44:09.744Z,70.00
2018-07-25T22:46:37.959Z,70.60
2018-07-25T22:49:06.171Z,70.80
2018-07-25T22:51:34.396Z,71.00
2018-07-25T22:54:02.595Z,71.40
2018-07-25T22:56:30.823Z,71.50
2018-07-25T22:58:59.059Z,71.70
2018-07-25T23:01:27.267Z,72.10
2018-07-25T23:03:55.486Z,72.10
2018-07-25T23:06:23.696Z,72.20
2018-07-25T23:08:51.911Z,72.20
2018-07-25T23:11:20.114Z,71.90
2018-07-25T23:13:48.338Z,71.80
2018-07-25T23:16:16.552Z,71.60
2018-07-25T23:18:44.774Z,72.00
2018-07-25T23:21:12.984Z,72.20
2018-07-25T23:23:41.202Z,72.50
2018-07-25T23:26:09.419Z,72.70
2018-07-25T23:28:37.651Z,73.00
2018-07-25T23:31:05.864Z,72.90
2018-07-25T23:33:34.084Z,72.80
2018-07-25T23:36:02.298Z,72.80
2018-07-25T23:38:30.515Z,72.70
2018-07-25T23:40:58.729Z,72.90
2018-07-25T23:43:26.942Z,73.30
2018-07-25T23:45:55.142Z,73.20
2018-07-25T23:48:23.354Z,73.50
2018-07-25T23:50:51.562Z,74.10
2018-07-25T23:53:19.774Z,74.20
2018-07-25T23:55:47.992Z,74.40
2018-07-25T23:58:16.209Z,74.60
